TimePST,TemperatureF,Dew PointF,Humidity,Sea Level PressureIn,VisibilityMPH,Wind Direction,Wind SpeedMPH,Gust SpeedMPH,PrecipitationIn,Events,Conditions,WindDirDegrees,DateUTC
12:56 AM,39.0,26.1,60,29.98,10.0,NE,5.8,-,N/A,,Clear,50,2011-11-11 08:56:00
1:56 AM,37.9,26.1,62,29.96,10.0,NE,3.5,-,N/A,,Clear,50,2011-11-11 09:56:00
2:56 AM,36.0,28.0,73,29.94,10.0,ENE,5.8,-,N/A,,Clear,60,2011-11-11 10:56:00
3:56 AM,39.2,24.8,56,29.89,10.0,Calm,Calm,-,N/A,,Clear,0,2011-11-11 11:56:00
4:56 AM,36.0,26.1,67,29.90,10.0,North,-9999.0,-,N/A,,Clear,0,2011-11-11 12:56:00
5:56 AM,33.1,27.0,78,29.88,10.0,ENE,6.9,-,N/A,,Clear,60,2011-11-11 13:56:00
6:56 AM,32.0,27.0,82,29.86,10.0,NE,8.1,-,N/A,,Clear,40,2011-11-11 14:56:00
7:56 AM,36.0,27.0,70,29.84,10.0,East,5.8,-,N/A,,Clear,80,2011-11-11 15:56:00
8:56 AM,41.0,28.9,62,29.81,10.0,NNE,5.8,-,N/A,,Clear,30,2011-11-11 16:56:00
9:56 AM,46.0,27.0,47,29.77,10.0,Calm,Calm,-,N/A,,Clear,0,2011-11-11 17:56:00
10:56 AM,50.0,30.0,46,29.72,10.0,NW,3.5,-,N/A,,Clear,320,2011-11-11 18:56:00
11:56 AM,52.0,28.9,41,29.66,9.0,Calm,Calm,-,N/A,,Clear,0,2011-11-11 19:56:00
12:56 PM,55.9,28.0,34,29.60,10.0,WSW,6.9,-,N/A,,Clear,250,2011-11-11 20:56:00
1:56 PM,57.9,25.0,28,29.56,8.0,SSW,13.8,20.7,N/A,,Clear,210,2011-11-11 21:56:00
2:56 PM,57.9,24.1,27,29.53,10.0,SSW,17.3,23.0,N/A,,Clear,200,2011-11-11 22:56:00
3:56 PM,54.0,27.0,35,29.52,10.0,Calm,Calm,-,N/A,,Mostly Cloudy,0,2011-11-11 23:56:00
4:56 PM,48.9,28.9,46,29.49,10.0,Calm,Calm,-,N/A,,Mostly Cloudy,0,2011-11-12 00:56:00
5:56 PM,48.0,30.9,52,29.47,10.0,Calm,Calm,-,N/A,,Overcast,0,2011-11-12 01:56:00
6:56 PM,46.0,32.0,58,29.46,10.0,Variable,5.8,-,N/A,,Overcast,0,2011-11-12 02:56:00
7:56 PM,52.0,32.0,47,29.45,4.0,West,24.2,31.1,N/A,,Haze,270,2011-11-12 03:56:00
8:03 PM,51.8,33.8,50,29.43,7.0,WSW,20.7,31.1,N/A,,Overcast,250,2011-11-12 04:03:00
8:56 PM,48.9,35.1,59,29.45,7.0,WNW,9.2,-,N/A,,Overcast,290,2011-11-12 04:56:00
9:56 PM,46.9,36.0,66,29.47,10.0,WNW,15.0,26.5,N/A,,Overcast,300,2011-11-12 05:56:00
10:27 PM,39.2,37.4,93,29.49,4.0,West,17.3,31.1,0.05,Rain,Light Rain,270,2011-11-12 06:27:00
10:43 PM,42.8,35.6,76,29.48,10.0,West,15.0,26.5,0.05,,Overcast,280,2011-11-12 06:43:00
10:56 PM,42.1,35.1,76,29.49,10.0,West,15.0,-,0.05,,Overcast,270,2011-11-12 06:56:00
11:56 PM,41.0,36.0,82,29.53,10.0,West,12.7,21.9,0.00,,Overcast,260,2011-11-12 07:56:00